Fulmar — WDD3992 — position and weather

sailwx.info

Track history (hours):
 
Tides and Currents Weather Stations Pressure Air Temp Water Temp Dewpoint Dewpoint Depression Visibility Wind Speed Wind Dir Waves Ship Positions

Oceanographic research ship Fulmar (United States)

Owner: NOAA R/V Fulmar, Monterey, CA. More information available from US FCC via Universal Licensing System.

Last reported at 2017-Jul-23 16:29 UTC. Time now 2017-Jul-23 16:35 UTC.
Position N 37°45' W 123°05'.

Length 20 m; draft 2 m.

Type: Ship. MMSI: 367139040.

Date/timePositionNaut miles runAvg speedWind from/ knotsBaromVisibWave heightAir tempDewpointWater temp
2017-Jul-23 16:29N 37°45' W 123°05'2414.2
2017-Jul-23 14:46N 37°48' W 122°34'416.5
2017-Jul-23 14:30N 37°49' W 122°29'3 4.9
2017-Jul-23 13:58N 37°52' W 122°29'0 0.0
2017-Jul-23 13:28N 37°52' W 122°29'0 0.0
2017-Jul-23 01:17N 37°52' W 122°29'0 0.0
2017-Jul-23 00:59N 37°52' W 122°29'0 0.0
2017-Jul-23 00:30N 37°52' W 122°29'0 0.2
2017-Jul-23 00:01N 37°52' W 122°29'4 8.2
2017-Jul-22 23:30N 37°48' W 122°30'5 9.1
2017-Jul-22 22:56N 37°43' W 122°32'5 6.8
2017-Jul-22 22:10N 37°39' W 122°37'210.9
2017-Jul-22 21:59N 37°39' W 122°39'2110.7
2017-Jul-22 20:02N 37°39' W 123°06'110.5
2017-Jul-22 19:56N 37°38' W 123°07'613.6
2017-Jul-22 19:30N 37°42' W 123°13'1015.6
2017-Jul-22 18:53N 37°48' W 123°23'3810.4
2017-Jul-22 15:11N 37°49' W 122°34'2 6.6
2017-Jul-22 14:55N 37°49' W 122°32'4 4.1
2017-Jul-22 14:00N 37°52' W 122°29'0 0.0
2017-Jul-22 13:30N 37°52' W 122°29'0 0.0
2017-Jul-22 01:00N 37°52' W 122°29'0 0.0
2017-Jul-22 00:31N 37°52' W 122°29'0 0.0
2017-Jul-21 23:57N 37°52' W 122°29'0 0.3
2017-Jul-21 23:30N 37°52' W 122°30'0 0.0
2017-Jul-21 23:00N 37°52' W 122°30'0 0.0
2017-Jul-21 22:30N 37°52' W 122°30'0 0.0
2017-Jul-21 22:00N 37°52' W 122°30'2 4.9
2017-Jul-21 21:30N 37°50' W 122°27'2 4.8
2017-Jul-21 21:00N 37°49' W 122°25'1 2.8
2017-Jul-21 20:31N 37°49' W 122°27'811.8
2017-Jul-21 19:51N 37°43' W 122°33'5 9.4
2017-Jul-21 19:20N 37°38' W 122°33'412.2
2017-Jul-21 19:01N 37°34' W 122°33'714.1
2017-Jul-21 18:30N 37°27' W 122°32'713.1
2017-Jul-21 18:00N 37°21' W 122°29'714.1
2017-Jul-21 17:30N 37°14' W 122°26'1713.8
2017-Jul-21 16:16N 36°60' W 122°15'312.3
2017-Jul-21 16:00N 36°57' W 122°13'611.7
2017-Jul-21 15:29N 36°52' W 122°09'1712.1
2017-Jul-21 14:05N 36°39' W 121°54'112.9
2017-Jul-21 13:59N 36°38' W 121°54'2 3.3
2017-Jul-21 13:28N 36°37' W 121°54'0 0.0
2017-Jul-21 12:55N 36°37' W 121°54'0 0.0
2017-Jul-19 21:11N 36°37' W 121°54'0 0.0
2017-Jul-19 20:59N 36°37' W 121°54'0 0.2
2017-Jul-19 20:29N 36°37' W 121°54'0 0.0
2017-Jul-19 19:56N 36°37' W 121°54'0 0.0
2017-Jul-19 19:29N 36°37' W 121°54'0 0.0
2017-Jul-19 18:59N 36°37' W 121°54'0 0.0
2017-Jul-18 18:43N 36°37' W 121°54'0 0.2
2017-Jul-18 18:30N 36°37' W 121°53'1414.3
2017-Jul-18 17:33N 36°49' W 122°01'116.4
2017-Jul-18 17:30N 36°49' W 122°02'1 1.2
2017-Jul-18 17:00N 36°50' W 122°02'4 7.3
2017-Jul-18 16:30N 36°49' W 122°07'610.9
2017-Jul-18 15:59N 36°47' W 122°13'714.6
2017-Jul-18 15:30N 36°49' W 122°05'14 8.6
2017-Jul-18 13:53N 36°38' W 121°55'2 4.7
2017-Jul-18 13:29N 36°37' W 121°54'0 0.0
2017-Jul-18 12:59N 36°37' W 121°54'0 0.0
2017-Jul-18 12:29N 36°37' W 121°54'0 0.0
2017-Jul-17 21:43N 36°37' W 121°54'0 0.0
2017-Jul-17 21:30N 36°37' W 121°54'4 7.3
2017-Jul-17 20:58N 36°36' W 121°58'612.1
2017-Jul-17 20:30N 36°31' W 121°60'611.2
2017-Jul-17 20:00N 36°25' W 121°60'510.5
2017-Jul-17 19:30N 36°20' W 122°00'3 5.7
2017-Jul-17 19:00N 36°17' W 122°00'0 0.3
2017-Jul-17 18:30N 36°17' W 122°00'0 0.0
2017-Jul-17 18:00N 36°17' W 122°00'0 0.1
2017-Jul-17 17:30N 36°17' W 122°00'0 0.4
2017-Jul-17 17:00N 36°18' W 122°00'0 0.5
2017-Jul-17 16:30N 36°18' W 121°60'0 0.4
2017-Jul-17 16:00N 36°18' W 121°60'0 0.2
2017-Jul-17 15:30N 36°18' W 121°60'2 3.5
2017-Jul-17 15:01N 36°20' W 121°60'917.5
2017-Jul-17 14:30N 36°28' W 121°60'816.5
2017-Jul-17 14:00N 36°37' W 121°58'4 8.3
2017-Jul-17 13:30N 36°36' W 121°53'0 0.5
2017-Jul-17 13:00N 36°37' W 121°54'0 0.0
2017-Jul-15 20:53N 36°37' W 121°54'1 2.2
2017-Jul-15 20:30N 36°37' W 121°53'713.3
2017-Jul-15 20:00N 36°34' W 122°01'2 4.3
2017-Jul-15 19:30N 36°33' W 122°03'0 0.1
2017-Jul-15 18:59N 36°33' W 122°03'0 0.3
2017-Jul-15 18:30N 36°33' W 122°03'0 0.6
2017-Jul-15 18:00N 36°32' W 122°03'0 0.6
2017-Jul-15 17:30N 36°32' W 122°03'0 0.6
2017-Jul-15 17:00N 36°32' W 122°02'0 0.4
2017-Jul-15 16:30N 36°32' W 122°02'0 0.5
2017-Jul-15 15:58N 36°32' W 122°02'0 0.2
2017-Jul-15 15:30N 36°32' W 122°02'8 4.4
2017-Jul-15 13:40N 36°39' W 121°56'214.9
2017-Jul-15 13:30N 36°37' W 121°53'0 0.9
2017-Jul-15 13:00N 36°37' W 121°54'0 0.0
2017-Jul-14 22:32N 36°37' W 121°54'0 0.0
2017-Jul-14 22:30N 36°37' W 121°54'6 8.2
2017-Jul-14 21:47N 36°41' W 121°58'616.9
2017-Jul-14 21:27N 36°46' W 122°02'817.2
2017-Jul-14 21:00N 36°51' W 122°09'5 8.9
2017-Jul-14 20:30N 36°55' W 122°13'0 0.2
2017-Jul-14 20:00N 36°55' W 122°13'0 0.4
2017-Jul-14 19:30N 36°55' W 122°13'0 0.4
2017-Jul-14 19:00N 36°55' W 122°13'0 0.5
2017-Jul-14 18:30N 36°55' W 122°13'0 0.5
2017-Jul-14 18:00N 36°55' W 122°13'0 0.3
2017-Jul-14 17:27N 36°55' W 122°13'0 0.6
2017-Jul-14 17:00N 36°55' W 122°14'0 0.4
2017-Jul-14 16:30N 36°55' W 122°14'0 0.5
2017-Jul-14 16:01N 36°55' W 122°14'0 0.4
2017-Jul-14 15:30N 36°55' W 122°14'2413.7
2017-Jul-14 13:47N 36°38' W 121°54'2 5.7
2017-Jul-14 13:30N 36°37' W 121°54'0 0.0
2017-Jul-14 13:00N 36°37' W 121°54'0 0.0
2017-Jul-13 23:50N 36°37' W 121°54'0 0.2
2017-Jul-13 23:30N 36°37' W 121°53'0 0.3
2017-Jul-13 23:00N 36°37' W 121°54'0 0.2
2017-Jul-13 22:30N 36°37' W 121°54'3 5.3
2017-Jul-13 21:59N 36°39' W 121°56'817.0
2017-Jul-13 21:30N 36°31' W 121°60'918.6
2017-Jul-13 21:00N 36°22' W 122°01'714.5
2017-Jul-13 20:30N 36°15' W 122°01'0 0.7
2017-Jul-13 20:01N 36°14' W 122°01'0 0.4
2017-Jul-13 19:30N 36°14' W 122°01'0 0.5
2017-Jul-13 19:00N 36°15' W 122°01'0 0.5
2017-Jul-13 18:30N 36°15' W 122°01'0 0.5
2017-Jul-13 18:00N 36°15' W 122°00'0 0.3
2017-Jul-13 17:30N 36°15' W 122°00'0 0.5
2017-Jul-13 17:00N 36°15' W 122°00'0 0.5
2017-Jul-13 16:31N 36°16' W 121°60'  
Track history (hours):
 
Tides and Currents Weather Stations Pressure Air Temp Water Temp Dewpoint Dewpoint Depression Visibility Wind Speed Wind Dir Waves Ship Positions

Oceanographic research ship Fulmar (United States)

Owner: NOAA R/V Fulmar, Monterey, CA. More information available from US FCC via Universal Licensing System.

Last reported at 2017-Jul-23 16:29 UTC. Time now 2017-Jul-23 16:35 UTC.
Position N 37°45' W 123°05'.

Length 20 m; draft 2 m.

Type: Ship. MMSI: 367139040.

Date/timePositionNaut miles runAvg speedWind from/ knotsBaromVisibWave heightAir tempDewpointWater temp
2017-Jul-23 16:29N 37°45' W 123°05'2414.2
2017-Jul-23 14:46N 37°48' W 122°34'416.5
2017-Jul-23 14:30N 37°49' W 122°29'3 4.9
2017-Jul-23 13:58N 37°52' W 122°29'0 0.0
2017-Jul-23 13:28N 37°52' W 122°29'0 0.0
2017-Jul-23 01:17N 37°52' W 122°29'0 0.0
2017-Jul-23 00:59N 37°52' W 122°29'0 0.0
2017-Jul-23 00:30N 37°52' W 122°29'0 0.2
2017-Jul-23 00:01N 37°52' W 122°29'4 8.2
2017-Jul-22 23:30N 37°48' W 122°30'5 9.1
2017-Jul-22 22:56N 37°43' W 122°32'5 6.8
2017-Jul-22 22:10N 37°39' W 122°37'210.9
2017-Jul-22 21:59N 37°39' W 122°39'2110.7
2017-Jul-22 20:02N 37°39' W 123°06'110.5
2017-Jul-22 19:56N 37°38' W 123°07'613.6
2017-Jul-22 19:30N 37°42' W 123°13'1015.6
2017-Jul-22 18:53N 37°48' W 123°23'3810.4
2017-Jul-22 15:11N 37°49' W 122°34'2 6.6
2017-Jul-22 14:55N 37°49' W 122°32'4 4.1
2017-Jul-22 14:00N 37°52' W 122°29'0 0.0
2017-Jul-22 13:30N 37°52' W 122°29'0 0.0
2017-Jul-22 01:00N 37°52' W 122°29'0 0.0
2017-Jul-22 00:31N 37°52' W 122°29'0 0.0
2017-Jul-21 23:57N 37°52' W 122°29'0 0.3
2017-Jul-21 23:30N 37°52' W 122°30'0 0.0
2017-Jul-21 23:00N 37°52' W 122°30'0 0.0
2017-Jul-21 22:30N 37°52' W 122°30'0 0.0
2017-Jul-21 22:00N 37°52' W 122°30'2 4.9
2017-Jul-21 21:30N 37°50' W 122°27'2 4.8
2017-Jul-21 21:00N 37°49' W 122°25'1 2.8
2017-Jul-21 20:31N 37°49' W 122°27'811.8
2017-Jul-21 19:51N 37°43' W 122°33'5 9.4
2017-Jul-21 19:20N 37°38' W 122°33'412.2
2017-Jul-21 19:01N 37°34' W 122°33'714.1
2017-Jul-21 18:30N 37°27' W 122°32'713.1
2017-Jul-21 18:00N 37°21' W 122°29'714.1
2017-Jul-21 17:30N 37°14' W 122°26'1713.8
2017-Jul-21 16:16N 36°60' W 122°15'312.3
2017-Jul-21 16:00N 36°57' W 122°13'611.7
2017-Jul-21 15:29N 36°52' W 122°09'1712.1
2017-Jul-21 14:05N 36°39' W 121°54'112.9
2017-Jul-21 13:59N 36°38' W 121°54'2 3.3
2017-Jul-21 13:28N 36°37' W 121°54'0 0.0
2017-Jul-21 12:55N 36°37' W 121°54'0 0.0
2017-Jul-19 21:11N 36°37' W 121°54'0 0.0
2017-Jul-19 20:59N 36°37' W 121°54'0 0.2
2017-Jul-19 20:29N 36°37' W 121°54'0 0.0
2017-Jul-19 19:56N 36°37' W 121°54'0 0.0
2017-Jul-19 19:29N 36°37' W 121°54'0 0.0
2017-Jul-19 18:59N 36°37' W 121°54'0 0.0
2017-Jul-18 18:43N 36°37' W 121°54'0 0.2
2017-Jul-18 18:30N 36°37' W 121°53'1414.3
2017-Jul-18 17:33N 36°49' W 122°01'116.4
2017-Jul-18 17:30N 36°49' W 122°02'1 1.2
2017-Jul-18 17:00N 36°50' W 122°02'4 7.3
2017-Jul-18 16:30N 36°49' W 122°07'610.9
2017-Jul-18 15:59N 36°47' W 122°13'714.6
2017-Jul-18 15:30N 36°49' W 122°05'14 8.6
2017-Jul-18 13:53N 36°38' W 121°55'2 4.7
2017-Jul-18 13:29N 36°37' W 121°54'0 0.0
2017-Jul-18 12:59N 36°37' W 121°54'0 0.0
2017-Jul-18 12:29N 36°37' W 121°54'0 0.0
2017-Jul-17 21:43N 36°37' W 121°54'0 0.0
2017-Jul-17 21:30N 36°37' W 121°54'4 7.3
2017-Jul-17 20:58N 36°36' W 121°58'612.1
2017-Jul-17 20:30N 36°31' W 121°60'611.2
2017-Jul-17 20:00N 36°25' W 121°60'510.5
2017-Jul-17 19:30N 36°20' W 122°00'3 5.7
2017-Jul-17 19:00N 36°17' W 122°00'0 0.3
2017-Jul-17 18:30N 36°17' W 122°00'0 0.0
2017-Jul-17 18:00N 36°17' W 122°00'0 0.1
2017-Jul-17 17:30N 36°17' W 122°00'0 0.4
2017-Jul-17 17:00N 36°18' W 122°00'0 0.5
2017-Jul-17 16:30N 36°18' W 121°60'0 0.4
2017-Jul-17 16:00N 36°18' W 121°60'0 0.2
2017-Jul-17 15:30N 36°18' W 121°60'2 3.5
2017-Jul-17 15:01N 36°20' W 121°60'917.5
2017-Jul-17 14:30N 36°28' W 121°60'816.5
2017-Jul-17 14:00N 36°37' W 121°58'4 8.3
2017-Jul-17 13:30N 36°36' W 121°53'0 0.5
2017-Jul-17 13:00N 36°37' W 121°54'0 0.0
2017-Jul-15 20:53N 36°37' W 121°54'1 2.2
2017-Jul-15 20:30N 36°37' W 121°53'713.3
2017-Jul-15 20:00N 36°34' W 122°01'2 4.3
2017-Jul-15 19:30N 36°33' W 122°03'0 0.1
2017-Jul-15 18:59N 36°33' W 122°03'0 0.3
2017-Jul-15 18:30N 36°33' W 122°03'0 0.6
2017-Jul-15 18:00N 36°32' W 122°03'0 0.6
2017-Jul-15 17:30N 36°32' W 122°03'0 0.6
2017-Jul-15 17:00N 36°32' W 122°02'0 0.4
2017-Jul-15 16:30N 36°32' W 122°02'0 0.5
2017-Jul-15 15:58N 36°32' W 122°02'0 0.2
2017-Jul-15 15:30N 36°32' W 122°02'8 4.4
2017-Jul-15 13:40N 36°39' W 121°56'214.9
2017-Jul-15 13:30N 36°37' W 121°53'0 0.9
2017-Jul-15 13:00N 36°37' W 121°54'0 0.0
2017-Jul-14 22:32N 36°37' W 121°54'0 0.0
2017-Jul-14 22:30N 36°37' W 121°54'6 8.2
2017-Jul-14 21:47N 36°41' W 121°58'616.9
2017-Jul-14 21:27N 36°46' W 122°02'817.2
2017-Jul-14 21:00N 36°51' W 122°09'5 8.9
2017-Jul-14 20:30N 36°55' W 122°13'0 0.2
2017-Jul-14 20:00N 36°55' W 122°13'0 0.4
2017-Jul-14 19:30N 36°55' W 122°13'0 0.4
2017-Jul-14 19:00N 36°55' W 122°13'0 0.5
2017-Jul-14 18:30N 36°55' W 122°13'0 0.5
2017-Jul-14 18:00N 36°55' W 122°13'0 0.3
2017-Jul-14 17:27N 36°55' W 122°13'0 0.6
2017-Jul-14 17:00N 36°55' W 122°14'0 0.4
2017-Jul-14 16:30N 36°55' W 122°14'0 0.5
2017-Jul-14 16:01N 36°55' W 122°14'0 0.4
2017-Jul-14 15:30N 36°55' W 122°14'2413.7
2017-Jul-14 13:47N 36°38' W 121°54'2 5.7
2017-Jul-14 13:30N 36°37' W 121°54'0 0.0
2017-Jul-14 13:00N 36°37' W 121°54'0 0.0
2017-Jul-13 23:50N 36°37' W 121°54'0 0.2
2017-Jul-13 23:30N 36°37' W 121°53'0 0.3
2017-Jul-13 23:00N 36°37' W 121°54'0 0.2
2017-Jul-13 22:30N 36°37' W 121°54'3 5.3
2017-Jul-13 21:59N 36°39' W 121°56'817.0
2017-Jul-13 21:30N 36°31' W 121°60'918.6
2017-Jul-13 21:00N 36°22' W 122°01'714.5
2017-Jul-13 20:30N 36°15' W 122°01'0 0.7
2017-Jul-13 20:01N 36°14' W 122°01'0 0.4
2017-Jul-13 19:30N 36°14' W 122°01'0 0.5
2017-Jul-13 19:00N 36°15' W 122°01'0 0.5
2017-Jul-13 18:30N 36°15' W 122°01'0 0.5
2017-Jul-13 18:00N 36°15' W 122°00'0 0.3
2017-Jul-13 17:30N 36°15' W 122°00'0 0.5
2017-Jul-13 17:00N 36°15' W 122°00'0 0.5
2017-Jul-13 16:31N 36°16' W 121°60'  

Dump ship's entire track history